sensor_id;sensor_type;location;lat;lon;timestamp;P1;durP1;ratioP1;P2;durP2;ratioP2
64832;SDS011;51290;45.060;38.948;2023-09-19T00:01:08;9.77;;;6.80;;
64832;SDS011;51290;45.060;38.948;2023-09-19T00:03:34;11.05;;;6.90;;
64832;SDS011;51290;45.060;38.948;2023-09-19T00:06:04;9.52;;;6.75;;
64832;SDS011;51290;45.060;38.948;2023-09-19T00:08:35;10.95;;;6.85;;
64832;SDS011;51290;45.060;38.948;2023-09-19T00:11:01;9.20;;;6.45;;
64832;SDS011;51290;45.060;38.948;2023-09-19T00:13:32;10.73;;;6.80;;
64832;SDS011;51290;45.060;38.948;2023-09-19T00:15:59;10.23;;;7.40;;
64832;SDS011;51290;45.060;38.948;2023-09-19T00:18:25;12.85;;;6.78;;
64832;SDS011;51290;45.060;38.948;2023-09-19T00:20:57;10.23;;;7.25;;
64832;SDS011;51290;45.060;38.948;2023-09-19T00:23:24;11.80;;;6.85;;
64832;SDS011;51290;45.060;38.948;2023-09-19T00:25:50;11.10;;;7.90;;
64832;SDS011;51290;45.060;38.948;2023-09-19T00:28:16;8.50;;;6.60;;
64832;SDS011;51290;45.060;38.948;2023-09-19T00:30:45;11.23;;;6.82;;
64832;SDS011;51290;45.060;38.948;2023-09-19T00:33:17;12.70;;;7.57;;
64832;SDS011;51290;45.060;38.948;2023-09-19T00:35:48;10.25;;;6.88;;
64832;SDS011;51290;45.060;38.948;2023-09-19T00:38:14;9.98;;;7.15;;
64832;SDS011;51290;45.060;38.948;2023-09-19T00:40:47;10.52;;;6.90;;
64832;SDS011;51290;45.060;38.948;2023-09-19T00:43:14;15.13;;;7.63;;
64832;SDS011;51290;45.060;38.948;2023-09-19T00:45:46;8.93;;;6.55;;
64832;SDS011;51290;45.060;38.948;2023-09-19T00:48:14;8.98;;;7.30;;
64832;SDS011;51290;45.060;38.948;2023-09-19T00:50:45;11.60;;;7.32;;
64832;SDS011;51290;45.060;38.948;2023-09-19T00:53:15;11.73;;;7.70;;
64832;SDS011;51290;45.060;38.948;2023-09-19T00:55:48;13.65;;;7.03;;
64832;SDS011;51290;45.060;38.948;2023-09-19T00:58:19;11.10;;;7.47;;
64832;SDS011;51290;45.060;38.948;2023-09-19T01:00:46;12.98;;;7.40;;
64832;SDS011;51290;45.060;38.948;2023-09-19T01:03:15;11.10;;;7.35;;
64832;SDS011;51290;45.060;38.948;2023-09-19T01:05:43;10.88;;;7.43;;
64832;SDS011;51290;45.060;38.948;2023-09-19T01:08:10;8.55;;;6.53;;
64832;SDS011;51290;45.060;38.948;2023-09-19T01:10:37;15.57;;;8.25;;
64832;SDS011;51290;45.060;38.948;2023-09-19T01:13:24;11.70;;;7.03;;
64832;SDS011;51290;45.060;38.948;2023-09-19T01:16:20;10.80;;;7.82;;
64832;SDS011;51290;45.060;38.948;2023-09-19T01:19:13;11.30;;;7.30;;
64832;SDS011;51290;45.060;38.948;2023-09-19T01:21:57;10.40;;;7.15;;
64832;SDS011;51290;45.060;38.948;2023-09-19T01:30:18;9.50;;;7.63;;
64832;SDS011;51290;45.060;38.948;2023-09-19T01:32:53;11.48;;;7.85;;
64832;SDS011;51290;45.060;38.948;2023-09-19T01:35:19;15.15;;;7.55;;
64832;SDS011;51290;45.060;38.948;2023-09-19T01:37:45;8.75;;;7.22;;
64832;SDS011;51290;45.060;38.948;2023-09-19T01:40:12;12.40;;;8.18;;
64832;SDS011;51290;45.060;38.948;2023-09-19T01:48:01;9.93;;;7.40;;
64832;SDS011;51290;45.060;38.948;2023-09-19T01:51:01;11.70;;;7.43;;
64832;SDS011;51290;45.060;38.948;2023-09-19T01:56:21;10.13;;;7.30;;
64832;SDS011;51290;45.060;38.948;2023-09-19T01:58:53;12.30;;;8.10;;
64832;SDS011;51290;45.060;38.948;2023-09-19T02:01:22;10.80;;;7.57;;
64832;SDS011;51290;45.060;38.948;2023-09-19T02:03:50;16.10;;;8.02;;
64832;SDS011;51290;45.060;38.948;2023-09-19T02:06:17;14.48;;;8.20;;
64832;SDS011;51290;45.060;38.948;2023-09-19T02:08:44;10.02;;;7.32;;
64832;SDS011;51290;45.060;38.948;2023-09-19T02:11:11;11.90;;;8.00;;
64832;SDS011;51290;45.060;38.948;2023-09-19T02:13:39;10.52;;;8.15;;
64832;SDS011;51290;45.060;38.948;2023-09-19T02:16:06;9.68;;;7.75;;
64832;SDS011;51290;45.060;38.948;2023-09-19T02:18:34;10.00;;;7.82;;
64832;SDS011;51290;45.060;38.948;2023-09-19T02:21:02;12.70;;;7.93;;
64832;SDS011;51290;45.060;38.948;2023-09-19T02:23:37;11.73;;;7.93;;
64832;SDS011;51290;45.060;38.948;2023-09-19T02:26:04;10.35;;;8.02;;
64832;SDS011;51290;45.060;38.948;2023-09-19T02:28:30;18.65;;;8.07;;
64832;SDS011;51290;45.060;38.948;2023-09-19T02:30:57;10.13;;;8.02;;
64832;SDS011;51290;45.060;38.948;2023-09-19T02:33:24;11.68;;;7.88;;
64832;SDS011;51290;45.060;38.948;2023-09-19T02:35:56;14.18;;;8.77;;
64832;SDS011;51290;45.060;38.948;2023-09-19T02:38:29;11.65;;;8.13;;
64832;SDS011;51290;45.060;38.948;2023-09-19T02:40:55;10.77;;;8.13;;
64832;SDS011;51290;45.060;38.948;2023-09-19T02:43:22;10.18;;;8.23;;
64832;SDS011;51290;45.060;38.948;2023-09-19T02:45:49;12.05;;;8.85;;
64832;SDS011;51290;45.060;38.948;2023-09-19T02:48:16;11.43;;;8.75;;
64832;SDS011;51290;45.060;38.948;2023-09-19T02:50:44;11.63;;;8.90;;
64832;SDS011;51290;45.060;38.948;2023-09-19T02:53:10;13.30;;;8.80;;
64832;SDS011;51290;45.060;38.948;2023-09-19T02:55:39;12.48;;;9.02;;
64832;SDS011;51290;45.060;38.948;2023-09-19T02:58:08;12.63;;;8.45;;
64832;SDS011;51290;45.060;38.948;2023-09-19T03:00:37;15.70;;;10.52;;
64832;SDS011;51290;45.060;38.948;2023-09-19T03:03:03;16.13;;;9.23;;
64832;SDS011;51290;45.060;38.948;2023-09-19T03:05:32;13.13;;;9.25;;
64832;SDS011;51290;45.060;38.948;2023-09-19T03:07:58;13.40;;;10.23;;
64832;SDS011;51290;45.060;38.948;2023-09-19T03:10:27;12.25;;;8.90;;
64832;SDS011;51290;45.060;38.948;2023-09-19T03:12:57;15.48;;;10.32;;
64832;SDS011;51290;45.060;38.948;2023-09-19T03:15:25;12.60;;;9.10;;
64832;SDS011;51290;45.060;38.948;2023-09-19T03:17:52;13.02;;;9.52;;
64832;SDS011;51290;45.060;38.948;2023-09-19T03:20:21;12.98;;;10.45;;
64832;SDS011;51290;45.060;38.948;2023-09-19T03:22:48;11.68;;;9.95;;
64832;SDS011;51290;45.060;38.948;2023-09-19T03:25:15;11.70;;;9.27;;
64832;SDS011;51290;45.060;38.948;2023-09-19T03:27:45;12.65;;;10.07;;
64832;SDS011;51290;45.060;38.948;2023-09-19T03:30:12;14.85;;;9.90;;
64832;SDS011;51290;45.060;38.948;2023-09-19T03:32:44;16.45;;;10.60;;
64832;SDS011;51290;45.060;38.948;2023-09-19T03:35:12;12.18;;;9.73;;
64832;SDS011;51290;45.060;38.948;2023-09-19T03:37:40;13.95;;;10.30;;
64832;SDS011;51290;45.060;38.948;2023-09-19T03:40:08;16.38;;;11.10;;
64832;SDS011;51290;45.060;38.948;2023-09-19T03:42:39;13.27;;;10.10;;
64832;SDS011;51290;45.060;38.948;2023-09-19T03:45:08;16.08;;;11.50;;
64832;SDS011;51290;45.060;38.948;2023-09-19T03:47:39;17.73;;;10.80;;
64832;SDS011;51290;45.060;38.948;2023-09-19T03:50:08;16.55;;;10.90;;
64832;SDS011;51290;45.060;38.948;2023-09-19T03:52:36;16.45;;;11.05;;
64832;SDS011;51290;45.060;38.948;2023-09-19T03:55:02;14.98;;;10.25;;
64832;SDS011;51290;45.060;38.948;2023-09-19T03:57:30;47.13;;;12.43;;
64832;SDS011;51290;45.060;38.948;2023-09-19T03:59:56;15.32;;;10.00;;
64832;SDS011;51290;45.060;38.948;2023-09-19T04:02:22;11.20;;;9.25;;
64832;SDS011;51290;45.060;38.948;2023-09-19T04:04:50;12.43;;;10.07;;
64832;SDS011;51290;45.060;38.948;2023-09-19T04:07:17;12.55;;;10.10;;
64832;SDS011;51290;45.060;38.948;2023-09-19T04:09:45;12.80;;;9.32;;
64832;SDS011;51290;45.060;38.948;2023-09-19T04:12:11;14.40;;;9.63;;
64832;SDS011;51290;45.060;38.948;2023-09-19T04:14:37;12.90;;;10.65;;
64832;SDS011;51290;45.060;38.948;2023-09-19T04:17:04;12.23;;;9.93;;
64832;SDS011;51290;45.060;38.948;2023-09-19T04:19:31;20.58;;;10.10;;
64832;SDS011;51290;45.060;38.948;2023-09-19T04:21:57;15.07;;;9.52;;
64832;SDS011;51290;45.060;38.948;2023-09-19T04:24:23;13.80;;;10.70;;
64832;SDS011;51290;45.060;38.948;2023-09-19T04:26:49;18.48;;;10.43;;
64832;SDS011;51290;45.060;38.948;2023-09-19T04:29:15;13.68;;;10.05;;
64832;SDS011;51290;45.060;38.948;2023-09-19T04:31:41;12.98;;;9.95;;
64832;SDS011;51290;45.060;38.948;2023-09-19T04:34:11;11.38;;;9.88;;
64832;SDS011;51290;45.060;38.948;2023-09-19T04:36:41;24.60;;;10.25;;
64832;SDS011;51290;45.060;38.948;2023-09-19T04:39:07;15.25;;;10.00;;
64832;SDS011;51290;45.060;38.948;2023-09-19T04:41:33;11.57;;;9.30;;
64832;SDS011;51290;45.060;38.948;2023-09-19T04:43:59;13.88;;;10.15;;
64832;SDS011;51290;45.060;38.948;2023-09-19T04:46:26;18.77;;;10.20;;
64832;SDS011;51290;45.060;38.948;2023-09-19T04:48:52;14.90;;;10.15;;
64832;SDS011;51290;45.060;38.948;2023-09-19T04:51:20;10.40;;;8.32;;
64832;SDS011;51290;45.060;38.948;2023-09-19T04:53:49;13.90;;;9.77;;
64832;SDS011;51290;45.060;38.948;2023-09-19T04:56:25;18.75;;;10.68;;
64832;SDS011;51290;45.060;38.948;2023-09-19T04:58:53;15.15;;;10.55;;
64832;SDS011;51290;45.060;38.948;2023-09-19T05:01:19;15.50;;;10.93;;
64832;SDS011;51290;45.060;38.948;2023-09-19T05:03:48;19.25;;;10.23;;
64832;SDS011;51290;45.060;38.948;2023-09-19T05:06:20;15.35;;;10.65;;
64832;SDS011;51290;45.060;38.948;2023-09-19T05:08:47;15.30;;;10.73;;
64832;SDS011;51290;45.060;38.948;2023-09-19T05:11:18;15.60;;;10.43;;
64832;SDS011;51290;45.060;38.948;2023-09-19T05:13:44;20.42;;;11.10;;
64832;SDS011;51290;45.060;38.948;2023-09-19T05:16:10;12.60;;;9.10;;
64832;SDS011;51290;45.060;38.948;2023-09-19T05:18:37;13.65;;;9.98;;
64832;SDS011;51290;45.060;38.948;2023-09-19T05:21:03;12.10;;;9.40;;
64832;SDS011;51290;45.060;38.948;2023-09-19T05:23:29;17.02;;;9.63;;
64832;SDS011;51290;45.060;38.948;2023-09-19T05:25:56;14.23;;;8.70;;
64832;SDS011;51290;45.060;38.948;2023-09-19T05:28:24;12.35;;;8.70;;
64832;SDS011;51290;45.060;38.948;2023-09-19T05:30:50;12.13;;;8.18;;
64832;SDS011;51290;45.060;38.948;2023-09-19T05:33:16;15.18;;;8.23;;
64832;SDS011;51290;45.060;38.948;2023-09-19T05:35:45;10.82;;;7.68;;
64832;SDS011;51290;45.060;38.948;2023-09-19T05:38:13;10.40;;;7.15;;
64832;SDS011;51290;45.060;38.948;2023-09-19T05:40:41;11.18;;;7.32;;
64832;SDS011;51290;45.060;38.948;2023-09-19T05:43:09;12.68;;;7.28;;
64832;SDS011;51290;45.060;38.948;2023-09-19T05:45:35;12.57;;;6.55;;
64832;SDS011;51290;45.060;38.948;2023-09-19T05:48:11;9.52;;;6.70;;
64832;SDS011;51290;45.060;38.948;2023-09-19T05:50:39;10.98;;;7.38;;
64832;SDS011;51290;45.060;38.948;2023-09-19T05:53:05;15.43;;;6.78;;
64832;SDS011;51290;45.060;38.948;2023-09-19T05:55:32;10.02;;;6.95;;
64832;SDS011;51290;45.060;38.948;2023-09-19T05:57:58;7.72;;;6.07;;
64832;SDS011;51290;45.060;38.948;2023-09-19T06:00:25;8.48;;;5.15;;
64832;SDS011;51290;45.060;38.948;2023-09-19T06:02:53;7.28;;;5.18;;
64832;SDS011;51290;45.060;38.948;2023-09-19T06:05:20;9.60;;;5.35;;
64832;SDS011;51290;45.060;38.948;2023-09-19T06:07:46;15.20;;;6.10;;
64832;SDS011;51290;45.060;38.948;2023-09-19T06:10:13;9.43;;;5.90;;
64832;SDS011;51290;45.060;38.948;2023-09-19T06:12:43;10.05;;;5.43;;
64832;SDS011;51290;45.060;38.948;2023-09-19T06:15:09;7.85;;;5.20;;
64832;SDS011;51290;45.060;38.948;2023-09-19T06:17:42;7.75;;;5.15;;
64832;SDS011;51290;45.060;38.948;2023-09-19T06:20:12;12.18;;;6.50;;
64832;SDS011;51290;45.060;38.948;2023-09-19T06:22:43;12.48;;;5.07;;
64832;SDS011;51290;45.060;38.948;2023-09-19T06:25:27;17.40;;;4.95;;
64832;SDS011;51290;45.060;38.948;2023-09-19T06:27:53;12.93;;;5.28;;
64832;SDS011;51290;45.060;38.948;2023-09-19T06:30:20;8.73;;;4.47;;
64832;SDS011;51290;45.060;38.948;2023-09-19T06:32:46;10.25;;;5.32;;
64832;SDS011;51290;45.060;38.948;2023-09-19T06:35:14;12.70;;;5.65;;
64832;SDS011;51290;45.060;38.948;2023-09-19T06:37:41;11.73;;;4.97;;
64832;SDS011;51290;45.060;38.948;2023-09-19T06:42:40;10.55;;;5.28;;
64832;SDS011;51290;45.060;38.948;2023-09-19T06:45:13;13.75;;;5.35;;
64832;SDS011;51290;45.060;38.948;2023-09-19T06:47:44;12.98;;;5.60;;
64832;SDS011;51290;45.060;38.948;2023-09-19T06:50:20;9.63;;;5.38;;
64832;SDS011;51290;45.060;38.948;2023-09-19T06:52:51;7.95;;;4.80;;
64832;SDS011;51290;45.060;38.948;2023-09-19T06:55:19;12.00;;;5.38;;
64832;SDS011;51290;45.060;38.948;2023-09-19T06:57:49;12.90;;;5.53;;
64832;SDS011;51290;45.060;38.948;2023-09-19T07:00:15;6.45;;;4.40;;
64832;SDS011;51290;45.060;38.948;2023-09-19T07:02:59;10.48;;;5.35;;
64832;SDS011;51290;45.060;38.948;2023-09-19T07:05:32;9.68;;;5.22;;
64832;SDS011;51290;45.060;38.948;2023-09-19T07:07:59;11.60;;;5.82;;
64832;SDS011;51290;45.060;38.948;2023-09-19T07:10:26;8.82;;;5.93;;
64832;SDS011;51290;45.060;38.948;2023-09-19T07:12:55;9.77;;;5.13;;
64832;SDS011;51290;45.060;38.948;2023-09-19T07:15:22;10.57;;;5.40;;
64832;SDS011;51290;45.060;38.948;2023-09-19T07:17:51;18.35;;;6.13;;
64832;SDS011;51290;45.060;38.948;2023-09-19T07:20:18;9.65;;;5.63;;
64832;SDS011;51290;45.060;38.948;2023-09-19T07:22:45;9.30;;;4.80;;
64832;SDS011;51290;45.060;38.948;2023-09-19T07:25:12;8.60;;;4.88;;
64832;SDS011;51290;45.060;38.948;2023-09-19T07:27:40;11.85;;;5.18;;
64832;SDS011;51290;45.060;38.948;2023-09-19T07:30:09;10.35;;;6.28;;
64832;SDS011;51290;45.060;38.948;2023-09-19T07:32:37;7.53;;;5.18;;
64832;SDS011;51290;45.060;38.948;2023-09-19T07:35:04;12.48;;;5.88;;
64832;SDS011;51290;45.060;38.948;2023-09-19T07:37:31;15.48;;;5.30;;
64832;SDS011;51290;45.060;38.948;2023-09-19T07:40:02;13.68;;;5.38;;
64832;SDS011;51290;45.060;38.948;2023-09-19T07:42:35;8.40;;;4.80;;
64832;SDS011;51290;45.060;38.948;2023-09-19T07:45:07;14.80;;;5.80;;
64832;SDS011;51290;45.060;38.948;2023-09-19T07:47:35;14.60;;;6.00;;
64832;SDS011;51290;45.060;38.948;2023-09-19T07:50:01;14.00;;;5.55;;
64832;SDS011;51290;45.060;38.948;2023-09-19T07:52:28;17.08;;;5.43;;
64832;SDS011;51290;45.060;38.948;2023-09-19T07:54:55;6.85;;;4.70;;
64832;SDS011;51290;45.060;38.948;2023-09-19T07:57:22;11.27;;;5.30;;
64832;SDS011;51290;45.060;38.948;2023-09-19T07:59:48;11.70;;;5.78;;
64832;SDS011;51290;45.060;38.948;2023-09-19T08:02:15;8.95;;;4.93;;
64832;SDS011;51290;45.060;38.948;2023-09-19T08:04:42;7.63;;;4.97;;
64832;SDS011;51290;45.060;38.948;2023-09-19T08:07:08;7.05;;;5.20;;
64832;SDS011;51290;45.060;38.948;2023-09-19T08:09:34;9.38;;;5.57;;
64832;SDS011;51290;45.060;38.948;2023-09-19T08:12:02;13.70;;;5.75;;
64832;SDS011;51290;45.060;38.948;2023-09-19T08:14:30;9.27;;;5.15;;
64832;SDS011;51290;45.060;38.948;2023-09-19T08:16:57;7.72;;;4.95;;
64832;SDS011;51290;45.060;38.948;2023-09-19T08:19:24;15.25;;;4.60;;
64832;SDS011;51290;45.060;38.948;2023-09-19T08:21:56;10.95;;;5.05;;
64832;SDS011;51290;45.060;38.948;2023-09-19T08:24:28;10.95;;;5.10;;
64832;SDS011;51290;45.060;38.948;2023-09-19T08:26:55;10.48;;;5.43;;
64832;SDS011;51290;45.060;38.948;2023-09-19T08:29:25;12.40;;;5.32;;
64832;SDS011;51290;45.060;38.948;2023-09-19T08:31:55;9.77;;;5.10;;
64832;SDS011;51290;45.060;38.948;2023-09-19T08:34:25;13.45;;;4.82;;
64832;SDS011;51290;45.060;38.948;2023-09-19T08:36:56;6.93;;;4.63;;
64832;SDS011;51290;45.060;38.948;2023-09-19T08:39:23;8.80;;;4.47;;
64832;SDS011;51290;45.060;38.948;2023-09-19T08:41:59;10.27;;;4.57;;
64832;SDS011;51290;45.060;38.948;2023-09-19T08:44:28;7.93;;;4.57;;
64832;SDS011;51290;45.060;38.948;2023-09-19T08:47:19;20.95;;;5.70;;
64832;SDS011;51290;45.060;38.948;2023-09-19T08:52:27;5.80;;;3.75;;
64832;SDS011;51290;45.060;38.948;2023-09-19T08:55:02;10.77;;;3.95;;
64832;SDS011;51290;45.060;38.948;2023-09-19T08:57:37;11.65;;;4.50;;
64832;SDS011;51290;45.060;38.948;2023-09-19T09:00:10;5.78;;;3.88;;
64832;SDS011;51290;45.060;38.948;2023-09-19T09:02:40;9.25;;;4.57;;
64832;SDS011;51290;45.060;38.948;2023-09-19T09:05:09;9.13;;;4.40;;
64832;SDS011;51290;45.060;38.948;2023-09-19T09:07:36;7.10;;;4.25;;
64832;SDS011;51290;45.060;38.948;2023-09-19T09:10:04;5.93;;;3.72;;
64832;SDS011;51290;45.060;38.948;2023-09-19T09:12:30;9.15;;;3.75;;
64832;SDS011;51290;45.060;38.948;2023-09-19T09:14:58;6.50;;;3.97;;
64832;SDS011;51290;45.060;38.948;2023-09-19T09:17:24;6.25;;;3.92;;
64832;SDS011;51290;45.060;38.948;2023-09-19T09:19:53;9.75;;;4.03;;
64832;SDS011;51290;45.060;38.948;2023-09-19T09:22:19;5.70;;;3.38;;
64832;SDS011;51290;45.060;38.948;2023-09-19T09:24:55;4.65;;;3.90;;
64832;SDS011;51290;45.060;38.948;2023-09-19T09:27:30;7.88;;;3.90;;
64832;SDS011;51290;45.060;38.948;2023-09-19T09:29:59;9.13;;;4.13;;
64832;SDS011;51290;45.060;38.948;2023-09-19T09:32:29;8.05;;;3.95;;
64832;SDS011;51290;45.060;38.948;2023-09-19T09:35:01;8.55;;;3.78;;
64832;SDS011;51290;45.060;38.948;2023-09-19T09:37:30;7.45;;;3.95;;
64832;SDS011;51290;45.060;38.948;2023-09-19T09:39:57;7.15;;;4.18;;
64832;SDS011;51290;45.060;38.948;2023-09-19T09:42:42;6.88;;;3.45;;
64832;SDS011;51290;45.060;38.948;2023-09-19T09:45:13;10.35;;;3.47;;
64832;SDS011;51290;45.060;38.948;2023-09-19T09:47:46;4.65;;;3.50;;
64832;SDS011;51290;45.060;38.948;2023-09-19T09:50:28;5.88;;;3.72;;
64832;SDS011;51290;45.060;38.948;2023-09-19T09:53:21;8.55;;;3.78;;
64832;SDS011;51290;45.060;38.948;2023-09-19T09:56:01;7.57;;;3.88;;
64832;SDS011;51290;45.060;38.948;2023-09-19T09:58:36;7.18;;;3.38;;
64832;SDS011;51290;45.060;38.948;2023-09-19T10:01:05;4.63;;;3.67;;
64832;SDS011;51290;45.060;38.948;2023-09-19T10:03:42;6.47;;;4.05;;
64832;SDS011;51290;45.060;38.948;2023-09-19T10:06:19;8.45;;;3.72;;
64832;SDS011;51290;45.060;38.948;2023-09-19T10:12:03;5.35;;;3.10;;
64832;SDS011;51290;45.060;38.948;2023-09-19T10:14:35;9.05;;;4.53;;
64832;SDS011;51290;45.060;38.948;2023-09-19T10:17:07;13.65;;;3.90;;
64832;SDS011;51290;45.060;38.948;2023-09-19T10:19:46;8.23;;;3.92;;
64832;SDS011;51290;45.060;38.948;2023-09-19T10:22:23;7.55;;;4.50;;
64832;SDS011;51290;45.060;38.948;2023-09-19T10:24:53;9.05;;;4.85;;
64832;SDS011;51290;45.060;38.948;2023-09-19T10:27:36;7.97;;;4.05;;
64832;SDS011;51290;45.060;38.948;2023-09-19T10:30:08;7.93;;;3.90;;
64832;SDS011;51290;45.060;38.948;2023-09-19T10:32:36;7.90;;;4.07;;
64832;SDS011;51290;45.060;38.948;2023-09-19T10:35:07;9.68;;;3.95;;
64832;SDS011;51290;45.060;38.948;2023-09-19T10:37:34;10.40;;;5.75;;
64832;SDS011;51290;45.060;38.948;2023-09-19T10:40:05;12.40;;;5.07;;
64832;SDS011;51290;45.060;38.948;2023-09-19T10:42:52;12.93;;;4.45;;
64832;SDS011;51290;45.060;38.948;2023-09-19T10:45:21;8.45;;;4.22;;
64832;SDS011;51290;45.060;38.948;2023-09-19T10:47:53;5.70;;;4.10;;
64832;SDS011;51290;45.060;38.948;2023-09-19T10:50:20;12.45;;;4.05;;
64832;SDS011;51290;45.060;38.948;2023-09-19T10:52:48;9.18;;;4.18;;
64832;SDS011;51290;45.060;38.948;2023-09-19T10:55:17;7.80;;;4.10;;
64832;SDS011;51290;45.060;38.948;2023-09-19T10:57:44;11.82;;;4.55;;
64832;SDS011;51290;45.060;38.948;2023-09-19T11:00:13;8.70;;;4.15;;
64832;SDS011;51290;45.060;38.948;2023-09-19T11:05:38;7.35;;;3.90;;
64832;SDS011;51290;45.060;38.948;2023-09-19T11:08:08;8.00;;;5.75;;
64832;SDS011;51290;45.060;38.948;2023-09-19T11:11:10;7.07;;;3.95;;
64832;SDS011;51290;45.060;38.948;2023-09-19T11:14:07;8.93;;;4.10;;
64832;SDS011;51290;45.060;38.948;2023-09-19T11:30:44;5.85;;;3.67;;
64832;SDS011;51290;45.060;38.948;2023-09-19T11:33:24;7.78;;;3.70;;
64832;SDS011;51290;45.060;38.948;2023-09-19T11:36:09;5.28;;;3.90;;
64832;SDS011;51290;45.060;38.948;2023-09-19T11:46:30;5.18;;;3.45;;
64832;SDS011;51290;45.060;38.948;2023-09-19T11:49:05;6.55;;;4.20;;
64832;SDS011;51290;45.060;38.948;2023-09-19T11:51:42;8.98;;;3.63;;
64832;SDS011;51290;45.060;38.948;2023-09-19T11:54:11;6.10;;;3.58;;
64832;SDS011;51290;45.060;38.948;2023-09-19T11:56:50;8.63;;;3.72;;
64832;SDS011;51290;45.060;38.948;2023-09-19T11:59:22;8.82;;;3.40;;
64832;SDS011;51290;45.060;38.948;2023-09-19T12:01:54;12.98;;;3.60;;
64832;SDS011;51290;45.060;38.948;2023-09-19T12:04:39;9.75;;;3.70;;
64832;SDS011;51290;45.060;38.948;2023-09-19T12:07:17;7.72;;;3.72;;
64832;SDS011;51290;45.060;38.948;2023-09-19T12:12:22;6.10;;;4.00;;
64832;SDS011;51290;45.060;38.948;2023-09-19T12:14:54;7.50;;;3.80;;
64832;SDS011;51290;45.060;38.948;2023-09-19T12:17:34;13.82;;;3.85;;
64832;SDS011;51290;45.060;38.948;2023-09-19T12:20:06;9.15;;;4.10;;
64832;SDS011;51290;45.060;38.948;2023-09-19T12:22:42;8.38;;;3.75;;
64832;SDS011;51290;45.060;38.948;2023-09-19T12:25:12;8.75;;;3.97;;
64832;SDS011;51290;45.060;38.948;2023-09-19T12:27:44;14.15;;;4.32;;
64832;SDS011;51290;45.060;38.948;2023-09-19T12:30:12;8.50;;;3.60;;
64832;SDS011;51290;45.060;38.948;2023-09-19T12:32:43;7.95;;;3.67;;
64832;SDS011;51290;45.060;38.948;2023-09-19T12:35:10;8.68;;;4.03;;
64832;SDS011;51290;45.060;38.948;2023-09-19T12:37:54;8.35;;;3.92;;
64832;SDS011;51290;45.060;38.948;2023-09-19T12:40:21;5.50;;;3.80;;
64832;SDS011;51290;45.060;38.948;2023-09-19T12:42:53;7.45;;;3.70;;
64832;SDS011;51290;45.060;38.948;2023-09-19T12:45:30;6.75;;;4.25;;
64832;SDS011;51290;45.060;38.948;2023-09-19T12:53:32;7.25;;;4.45;;
64832;SDS011;51290;45.060;38.948;2023-09-19T12:56:12;8.68;;;4.20;;
64832;SDS011;51290;45.060;38.948;2023-09-19T12:58:53;8.07;;;4.13;;
64832;SDS011;51290;45.060;38.948;2023-09-19T13:01:35;6.60;;;4.22;;
64832;SDS011;51290;45.060;38.948;2023-09-19T13:06:38;9.55;;;4.28;;
64832;SDS011;51290;45.060;38.948;2023-09-19T13:09:11;7.30;;;4.85;;
64832;SDS011;51290;45.060;38.948;2023-09-19T13:11:40;7.78;;;3.83;;
64832;SDS011;51290;45.060;38.948;2023-09-19T13:14:13;9.82;;;4.32;;
64832;SDS011;51290;45.060;38.948;2023-09-19T13:17:00;7.43;;;4.00;;
64832;SDS011;51290;45.060;38.948;2023-09-19T13:19:35;7.07;;;4.10;;
64832;SDS011;51290;45.060;38.948;2023-09-19T13:22:41;3.88;;;3.17;;
64832;SDS011;51290;45.060;38.948;2023-09-19T13:25:23;6.13;;;3.85;;
64832;SDS011;51290;45.060;38.948;2023-09-19T13:27:51;6.13;;;3.53;;
64832;SDS011;51290;45.060;38.948;2023-09-19T13:30:20;8.63;;;3.63;;
64832;SDS011;51290;45.060;38.948;2023-09-19T13:32:47;8.50;;;4.00;;
64832;SDS011;51290;45.060;38.948;2023-09-19T13:35:14;6.43;;;4.10;;
64832;SDS011;51290;45.060;38.948;2023-09-19T13:37:41;5.95;;;3.65;;
64832;SDS011;51290;45.060;38.948;2023-09-19T13:40:09;4.80;;;3.60;;
64832;SDS011;51290;45.060;38.948;2023-09-19T13:42:36;6.18;;;3.75;;
64832;SDS011;51290;45.060;38.948;2023-09-19T13:45:03;8.75;;;4.32;;
64832;SDS011;51290;45.060;38.948;2023-09-19T13:47:32;6.10;;;3.53;;
64832;SDS011;51290;45.060;38.948;2023-09-19T13:49:59;8.02;;;4.22;;
64832;SDS011;51290;45.060;38.948;2023-09-19T13:52:27;7.15;;;3.60;;
64832;SDS011;51290;45.060;38.948;2023-09-19T13:54:56;11.23;;;3.88;;
64832;SDS011;51290;45.060;38.948;2023-09-19T13:57:25;7.45;;;4.03;;
64832;SDS011;51290;45.060;38.948;2023-09-19T13:59:52;11.45;;;4.10;;
64832;SDS011;51290;45.060;38.948;2023-09-19T14:02:20;7.05;;;3.60;;
64832;SDS011;51290;45.060;38.948;2023-09-19T14:04:50;9.93;;;3.90;;
64832;SDS011;51290;45.060;38.948;2023-09-19T14:07:17;6.10;;;3.50;;
64832;SDS011;51290;45.060;38.948;2023-09-19T14:09:45;8.90;;;4.07;;
64832;SDS011;51290;45.060;38.948;2023-09-19T14:12:11;8.00;;;4.03;;
64832;SDS011;51290;45.060;38.948;2023-09-19T14:14:38;8.20;;;3.80;;
64832;SDS011;51290;45.060;38.948;2023-09-19T14:17:04;8.50;;;4.20;;
64832;SDS011;51290;45.060;38.948;2023-09-19T14:19:32;10.25;;;4.13;;
64832;SDS011;51290;45.060;38.948;2023-09-19T14:21:58;10.30;;;4.45;;
64832;SDS011;51290;45.060;38.948;2023-09-19T14:24:25;8.68;;;4.07;;
64832;SDS011;51290;45.060;38.948;2023-09-19T14:26:51;9.80;;;5.22;;
64832;SDS011;51290;45.060;38.948;2023-09-19T14:29:17;7.55;;;4.13;;
64832;SDS011;51290;45.060;38.948;2023-09-19T14:31:44;10.43;;;4.40;;
64832;SDS011;51290;45.060;38.948;2023-09-19T14:34:10;7.90;;;4.60;;
64832;SDS011;51290;45.060;38.948;2023-09-19T14:36:37;9.93;;;4.45;;
64832;SDS011;51290;45.060;38.948;2023-09-19T14:39:07;10.20;;;3.65;;
64832;SDS011;51290;45.060;38.948;2023-09-19T14:41:33;7.25;;;4.00;;
64832;SDS011;51290;45.060;38.948;2023-09-19T14:44:01;6.40;;;3.67;;
64832;SDS011;51290;45.060;38.948;2023-09-19T14:46:28;11.63;;;4.63;;
64832;SDS011;51290;45.060;38.948;2023-09-19T14:48:54;11.77;;;4.07;;
64832;SDS011;51290;45.060;38.948;2023-09-19T14:51:25;12.82;;;4.18;;
64832;SDS011;51290;45.060;38.948;2023-09-19T14:53:51;7.25;;;4.30;;
64832;SDS011;51290;45.060;38.948;2023-09-19T14:56:18;9.10;;;3.88;;
64832;SDS011;51290;45.060;38.948;2023-09-19T14:58:45;8.82;;;4.10;;
64832;SDS011;51290;45.060;38.948;2023-09-19T15:01:12;10.48;;;4.00;;
64832;SDS011;51290;45.060;38.948;2023-09-19T15:03:39;11.20;;;4.57;;
64832;SDS011;51290;45.060;38.948;2023-09-19T15:06:10;9.00;;;4.07;;
64832;SDS011;51290;45.060;38.948;2023-09-19T15:08:40;9.25;;;3.95;;
64832;SDS011;51290;45.060;38.948;2023-09-19T15:11:11;9.68;;;4.55;;
64832;SDS011;51290;45.060;38.948;2023-09-19T15:13:37;6.80;;;4.13;;
64832;SDS011;51290;45.060;38.948;2023-09-19T15:16:07;7.50;;;4.53;;
64832;SDS011;51290;45.060;38.948;2023-09-19T15:18:38;7.85;;;4.22;;
64832;SDS011;51290;45.060;38.948;2023-09-19T15:21:09;15.82;;;4.63;;
64832;SDS011;51290;45.060;38.948;2023-09-19T15:23:36;10.75;;;5.20;;
64832;SDS011;51290;45.060;38.948;2023-09-19T15:26:08;12.25;;;5.68;;
64832;SDS011;51290;45.060;38.948;2023-09-19T15:28:37;9.45;;;6.05;;
64832;SDS011;51290;45.060;38.948;2023-09-19T15:31:07;8.90;;;5.20;;
64832;SDS011;51290;45.060;38.948;2023-09-19T15:33:34;15.30;;;5.85;;
64832;SDS011;51290;45.060;38.948;2023-09-19T15:36:10;9.18;;;5.30;;
64832;SDS011;51290;45.060;38.948;2023-09-19T15:38:56;13.20;;;5.65;;
64832;SDS011;51290;45.060;38.948;2023-09-19T15:41:25;13.40;;;5.68;;